createdAt,value
2022-10-21T00:00:46.332Z,26.10
2022-10-21T00:03:22.216Z,26.10
2022-10-21T00:05:56.404Z,26.10
2022-10-21T00:08:30.286Z,26.10
2022-10-21T00:11:05.777Z,26.10
2022-10-21T00:13:40.884Z,26.10
2022-10-21T00:16:17.246Z,26.10
2022-10-21T00:18:52.539Z,26.10
2022-10-21T00:21:26.359Z,26.10
2022-10-21T00:23:59.884Z,26.10
2022-10-21T00:26:37.506Z,26.00
2022-10-21T00:29:12.442Z,26.00
2022-10-21T00:31:46.284Z,26.10
2022-10-21T00:34:21.218Z,26.10
2022-10-21T00:36:55.064Z,26.00
2022-10-21T00:39:28.918Z,26.00
2022-10-21T00:42:02.434Z,26.00
2022-10-21T00:44:37.882Z,26.00
2022-10-21T00:47:17.380Z,26.00
2022-10-21T00:49:59.754Z,26.00
2022-10-21T00:52:35.850Z,26.00
2022-10-21T00:55:10.302Z,26.00
2022-10-21T00:57:44.238Z,26.00
2022-10-21T01:00:18.225Z,26.00
2022-10-21T01:02:52.237Z,26.00
2022-10-21T01:05:28.009Z,26.00
2022-10-21T01:08:02.472Z,26.00
2022-10-21T01:10:36.478Z,26.10
2022-10-21T01:13:21.727Z,26.00
2022-10-21T01:16:00.108Z,26.00
2022-10-21T01:18:44.691Z,26.10
2022-10-21T01:21:31.881Z,26.10
2022-10-21T01:24:29.828Z,26.10
2022-10-21T01:27:23.450Z,26.10
2022-10-21T01:30:12.393Z,26.10
2022-10-21T01:33:06.090Z,26.10
2022-10-21T01:35:49.619Z,26.10
2022-10-21T01:38:30.836Z,26.10
2022-10-21T01:41:14.156Z,26.10
2022-10-21T01:43:56.476Z,26.10
2022-10-21T01:46:35.637Z,26.10
2022-10-21T01:49:19.533Z,26.10
2022-10-21T01:51:55.489Z,26.10
2022-10-21T01:54:33.063Z,26.10
2022-10-21T01:57:09.758Z,26.10
2022-10-21T01:59:45.563Z,26.10
2022-10-21T02:02:21.388Z,26.10
2022-10-21T02:05:00.389Z,26.10
2022-10-21T02:07:34.315Z,26.10
2022-10-21T02:10:09.280Z,26.10
2022-10-21T02:12:47.350Z,26.10
2022-10-21T02:15:22.838Z,26.10
2022-10-21T02:18:02.323Z,26.10
2022-10-21T02:20:41.219Z,26.10
2022-10-21T02:23:18.148Z,26.10
2022-10-21T02:25:52.745Z,26.10
2022-10-21T02:28:26.781Z,26.10
2022-10-21T02:31:10.025Z,26.10
2022-10-21T02:34:00.477Z,26.10
2022-10-21T02:36:44.602Z,26.10
2022-10-21T02:39:21.339Z,26.10
2022-10-21T02:41:57.621Z,26.10
2022-10-21T02:44:31.947Z,26.00
2022-10-21T02:47:06.335Z,26.10
2022-10-21T02:49:40.228Z,26.00
2022-10-21T02:52:15.542Z,26.00
2022-10-21T02:54:49.617Z,26.10
2022-10-21T02:57:23.551Z,26.00
2022-10-21T02:59:57.598Z,26.10
2022-10-21T03:02:31.432Z,26.00
2022-10-21T03:05:05.296Z,26.00
2022-10-21T03:07:40.885Z,26.00
2022-10-21T03:10:14.939Z,26.00
2022-10-21T03:12:50.920Z,26.00
2022-10-21T03:15:24.838Z,26.00
2022-10-21T03:17:58.987Z,26.00
2022-10-21T03:20:32.871Z,26.00
2022-10-21T03:23:08.288Z,26.00
2022-10-21T03:25:42.150Z,26.00
2022-10-21T03:28:16.477Z,26.00
2022-10-21T03:30:50.439Z,26.00
2022-10-21T03:33:24.402Z,26.00
2022-10-21T03:35:58.293Z,26.10
2022-10-21T03:38:33.641Z,26.00
2022-10-21T03:41:07.644Z,26.00
2022-10-21T03:43:41.548Z,26.00
2022-10-21T03:46:15.563Z,26.00
2022-10-21T03:48:49.502Z,26.00
2022-10-21T03:51:23.506Z,26.00
2022-10-21T03:53:58.547Z,26.00
2022-10-21T03:56:32.702Z,26.00
2022-10-21T03:59:06.657Z,26.00
2022-10-21T04:01:40.595Z,26.00
2022-10-21T04:04:14.545Z,26.00
2022-10-21T04:06:48.446Z,26.00
2022-10-21T04:09:23.841Z,26.10
2022-10-21T04:11:57.889Z,26.00
2022-10-21T04:14:31.796Z,26.00
2022-10-21T04:17:07.823Z,26.00
2022-10-21T04:19:41.982Z,26.00
2022-10-21T04:22:15.917Z,26.00
2022-10-21T04:24:51.233Z,26.00
2022-10-21T04:27:25.215Z,26.00
2022-10-21T04:29:59.122Z,26.00
2022-10-21T04:32:33.080Z,26.00
2022-10-21T04:35:08.000Z,26.00
2022-10-21T04:37:43.381Z,26.00
2022-10-21T04:40:18.833Z,26.00
2022-10-21T04:42:52.913Z,26.00
2022-10-21T04:45:26.883Z,26.00
2022-10-21T04:48:00.907Z,26.00
2022-10-21T04:50:35.479Z,26.00
2022-10-21T04:53:09.372Z,26.00
2022-10-21T04:55:44.384Z,26.00
2022-10-21T04:58:21.584Z,26.00
2022-10-21T05:00:56.104Z,26.00
2022-10-21T05:03:30.118Z,26.00
2022-10-21T05:06:04.240Z,26.00
2022-10-21T05:08:38.220Z,26.00
2022-10-21T05:11:13.569Z,26.00
2022-10-21T05:13:47.620Z,26.00
2022-10-21T05:16:21.491Z,26.00
2022-10-21T05:18:55.548Z,26.00
2022-10-21T05:21:29.455Z,26.00
2022-10-21T05:24:03.391Z,26.00
2022-10-21T05:26:38.699Z,26.00
2022-10-21T05:29:12.641Z,26.00
2022-10-21T05:31:46.603Z,26.00
2022-10-21T05:34:20.611Z,26.00
2022-10-21T05:36:54.847Z,26.00
2022-10-21T05:39:28.860Z,26.00
2022-10-21T05:42:04.241Z,26.00
2022-10-21T05:44:38.171Z,26.00
2022-10-21T05:47:12.134Z,26.00
2022-10-21T05:49:46.031Z,26.00
2022-10-21T05:52:19.936Z,26.00
2022-10-21T05:54:53.955Z,26.00
2022-10-21T05:57:29.688Z,26.00
2022-10-21T06:00:03.867Z,26.00
2022-10-21T06:02:40.232Z,26.00
2022-10-21T06:05:14.670Z,26.00
2022-10-21T06:07:48.940Z,26.00
2022-10-21T06:10:26.712Z,26.00
2022-10-21T06:13:04.540Z,26.00
2022-10-21T06:15:38.597Z,26.00
2022-10-21T06:18:12.129Z,26.00
2022-10-21T06:20:46.027Z,26.00
2022-10-21T06:23:20.156Z,26.00
2022-10-21T06:25:58.447Z,26.00
2022-10-21T06:28:36.514Z,26.00
2022-10-21T06:31:13.729Z,26.00
2022-10-21T06:33:47.534Z,26.00
2022-10-21T06:36:21.089Z,26.00
2022-10-21T06:38:54.904Z,26.00
2022-10-21T06:41:28.803Z,26.00
2022-10-21T06:44:04.087Z,26.00
2022-10-21T06:46:37.961Z,26.00
2022-10-21T06:49:11.817Z,26.00
2022-10-21T06:51:45.623Z,26.00
2022-10-21T06:54:19.126Z,26.00
2022-10-21T06:56:52.930Z,26.00
2022-10-21T06:59:27.904Z,26.00
2022-10-21T07:02:01.806Z,26.00
2022-10-21T07:04:35.649Z,26.10
2022-10-21T07:07:09.156Z,26.10
2022-10-21T07:09:43.371Z,26.10
2022-10-21T07:12:17.169Z,26.10
2022-10-21T07:14:52.602Z,26.10
2022-10-21T07:17:26.624Z,26.10
2022-10-21T07:20:00.694Z,26.10
2022-10-21T07:22:35.790Z,26.10
2022-10-21T07:25:10.144Z,26.10
2022-10-21T07:27:47.428Z,26.10
2022-10-21T07:30:24.063Z,26.10
2022-10-21T07:32:57.965Z,26.10
2022-10-21T07:35:31.826Z,26.10
2022-10-21T07:38:05.378Z,26.10
2022-10-21T07:40:41.676Z,26.10
2022-10-21T07:43:15.699Z,26.10
2022-10-21T07:45:51.141Z,26.10
2022-10-21T07:48:25.110Z,26.10
2022-10-21T07:51:05.049Z,26.10
2022-10-21T07:53:39.691Z,26.10
2022-10-21T07:56:15.515Z,26.10
2022-10-21T07:58:49.790Z,26.10
2022-10-21T08:01:25.347Z,26.10
2022-10-21T08:03:59.946Z,26.00
2022-10-21T08:06:34.324Z,25.90
2022-10-21T08:09:08.312Z,25.70
2022-10-21T08:11:42.604Z,25.70
2022-10-21T08:14:17.017Z,25.60
2022-10-21T08:16:55.035Z,25.60
2022-10-21T08:19:29.881Z,25.60
2022-10-21T08:22:03.853Z,25.60
2022-10-21T08:24:40.013Z,25.60
2022-10-21T08:27:16.387Z,25.60
2022-10-21T08:29:50.286Z,25.60
2022-10-21T08:32:25.773Z,25.60
2022-10-21T08:34:59.558Z,25.70
2022-10-21T08:37:33.395Z,25.70
2022-10-21T08:40:09.262Z,25.70
2022-10-21T08:42:45.627Z,25.70
2022-10-21T08:45:36.977Z,25.70
2022-10-21T08:48:16.879Z,25.70
2022-10-21T08:50:53.268Z,25.80
2022-10-21T08:53:32.918Z,25.80
2022-10-21T08:56:15.673Z,25.80
2022-10-21T08:58:53.793Z,25.80
2022-10-21T09:01:32.247Z,25.80
2022-10-21T09:04:17.089Z,25.80
2022-10-21T09:06:56.223Z,25.80
2022-10-21T09:09:36.146Z,25.80
2022-10-21T09:12:19.938Z,25.80
2022-10-21T09:15:11.170Z,25.90
2022-10-21T09:17:57.818Z,25.90
2022-10-21T09:20:54.928Z,25.90
2022-10-21T09:23:46.166Z,25.90
2022-10-21T09:26:34.075Z,25.90
2022-10-21T09:29:21.503Z,25.90
2022-10-21T09:32:02.258Z,25.90
2022-10-21T09:34:45.015Z,25.90
2022-10-21T09:37:31.712Z,25.90
2022-10-21T09:40:16.269Z,25.90
2022-10-21T09:42:55.857Z,25.90
2022-10-21T09:45:34.492Z,25.90
2022-10-21T09:48:22.661Z,25.90
2022-10-21T09:51:00.669Z,25.90
2022-10-21T09:53:47.722Z,26.00
2022-10-21T09:56:27.543Z,26.00
2022-10-21T09:59:08.124Z,26.00
2022-10-21T10:01:44.484Z,26.00
2022-10-21T10:04:25.546Z,26.00
2022-10-21T10:07:02.069Z,26.00
2022-10-21T10:09:37.691Z,26.00
2022-10-21T10:12:15.944Z,26.00
2022-10-21T10:14:50.041Z,26.00
2022-10-21T10:17:30.643Z,26.00
2022-10-21T10:20:20.497Z,26.00
2022-10-21T10:23:18.824Z,26.00
2022-10-21T10:25:54.621Z,26.00
2022-10-21T10:28:28.758Z,26.00
2022-10-21T10:31:03.065Z,26.00
2022-10-21T10:33:37.733Z,26.00
2022-10-21T10:36:28.338Z,26.00
2022-10-21T10:39:04.122Z,26.00
2022-10-21T10:41:42.444Z,26.00
2022-10-21T10:44:26.999Z,26.00
2022-10-21T10:47:03.680Z,26.00
2022-10-21T10:49:40.120Z,26.00
2022-10-21T10:52:21.651Z,26.00
2022-10-21T10:55:19.228Z,26.00
2022-10-21T10:58:10.447Z,26.00
2022-10-21T11:00:48.061Z,26.00
2022-10-21T11:03:28.122Z,26.00
2022-10-21T11:06:14.861Z,26.00
2022-10-21T11:08:52.787Z,25.90
2022-10-21T11:11:29.839Z,25.90
2022-10-21T11:14:05.711Z,25.90
2022-10-21T11:16:59.983Z,25.90
2022-10-21T11:19:44.749Z,26.00
2022-10-21T11:22:29.961Z,25.90
2022-10-21T11:25:16.199Z,26.00
2022-10-21T11:28:12.320Z,26.00
2022-10-21T11:31:07.144Z,26.00
2022-10-21T11:33:51.028Z,26.00
2022-10-21T11:36:28.766Z,26.00
2022-10-21T11:39:33.046Z,26.00
2022-10-21T11:42:17.788Z,26.00
2022-10-21T11:45:04.202Z,25.90
2022-10-21T11:47:47.484Z,26.00
2022-10-21T11:50:28.978Z,25.90
2022-10-21T11:53:17.189Z,26.00
2022-10-21T11:56:01.326Z,25.90
2022-10-21T11:58:47.614Z,25.90
2022-10-21T12:01:32.143Z,25.90
2022-10-21T12:04:26.228Z,25.90
2022-10-21T12:07:13.952Z,25.90
2022-10-21T12:09:53.869Z,25.90
2022-10-21T12:12:32.865Z,25.90
2022-10-21T12:15:17.406Z,25.90
2022-10-21T12:17:52.058Z,25.90
2022-10-21T12:20:28.807Z,25.90
2022-10-21T12:23:05.989Z,25.90
2022-10-21T12:25:45.586Z,25.90
2022-10-21T12:28:25.609Z,25.90
2022-10-21T12:31:05.983Z,25.90
2022-10-21T12:33:43.153Z,25.80
2022-10-21T12:36:38.375Z,25.80
2022-10-21T12:39:18.231Z,25.60
2022-10-21T12:42:06.737Z,25.50
2022-10-21T12:44:46.059Z,25.50
2022-10-21T12:47:26.936Z,25.50
2022-10-21T12:50:19.010Z,25.50
2022-10-21T12:53:13.159Z,25.50
2022-10-21T12:55:52.436Z,25.50
2022-10-21T12:58:41.523Z,25.50
2022-10-21T13:01:37.750Z,25.50
2022-10-21T13:04:44.740Z,25.50
2022-10-21T13:07:39.273Z,25.50
2022-10-21T13:10:28.495Z,25.50
2022-10-21T13:13:32.109Z,25.50
2022-10-21T13:16:36.212Z,25.50
2022-10-21T13:19:34.399Z,25.50
2022-10-21T13:22:14.184Z,25.50
2022-10-21T13:24:48.456Z,25.50
2022-10-21T13:27:32.322Z,25.50
2022-10-21T13:30:09.405Z,25.50
2022-10-21T13:32:45.141Z,25.50
2022-10-21T13:35:33.213Z,25.50
2022-10-21T13:38:20.985Z,25.50
2022-10-21T13:40:57.822Z,25.50
2022-10-21T13:43:46.549Z,25.50
2022-10-21T13:46:23.138Z,25.50
2022-10-21T13:49:00.826Z,25.50
2022-10-21T13:51:36.389Z,25.50
2022-10-21T13:54:13.947Z,25.50
2022-10-21T13:56:49.200Z,25.50
2022-10-21T13:59:27.385Z,25.50
2022-10-21T14:02:02.318Z,25.50
2022-10-21T14:04:42.979Z,25.50
2022-10-21T14:07:19.665Z,25.50
2022-10-21T14:09:56.423Z,25.50
2022-10-21T14:12:34.382Z,25.50
2022-10-21T14:15:18.185Z,25.50
2022-10-21T14:17:56.614Z,25.50
2022-10-21T14:20:34.100Z,25.50
2022-10-21T14:23:19.052Z,25.50
2022-10-21T14:25:55.368Z,25.50
2022-10-21T14:28:29.472Z,25.50
2022-10-21T14:33:49.905Z,25.50
2022-10-21T14:36:28.071Z,25.50
2022-10-21T14:39:06.753Z,25.50
2022-10-21T14:41:46.029Z,25.50
2022-10-21T14:44:23.572Z,25.50
2022-10-21T14:46:59.884Z,25.50
2022-10-21T14:49:40.837Z,25.50
2022-10-21T14:52:20.769Z,25.50
2022-10-21T14:54:58.265Z,25.50
2022-10-21T14:57:40.611Z,25.50
2022-10-21T15:00:28.934Z,25.50
2022-10-21T15:03:06.029Z,25.50
2022-10-21T15:05:46.573Z,25.50
2022-10-21T15:08:32.296Z,25.50
2022-10-21T15:11:23.723Z,25.50
2022-10-21T15:14:18.686Z,25.50
2022-10-21T15:16:55.312Z,25.50
2022-10-21T15:19:43.179Z,25.50
2022-10-21T15:22:26.461Z,25.40
2022-10-21T15:25:06.845Z,25.40
2022-10-21T15:27:43.019Z,25.40
2022-10-21T15:30:19.616Z,25.40
2022-10-21T15:32:55.244Z,25.40
2022-10-21T15:35:31.041Z,25.30
2022-10-21T15:38:05.282Z,25.30
2022-10-21T15:40:39.862Z,25.30
2022-10-21T15:43:13.980Z,25.30
2022-10-21T15:45:48.339Z,25.30
2022-10-21T15:48:23.399Z,25.30
2022-10-21T15:50:59.052Z,25.30
2022-10-21T15:53:33.094Z,25.30
2022-10-21T15:56:07.544Z,25.30
2022-10-21T15:58:41.709Z,25.40
2022-10-21T16:01:17.271Z,25.40
2022-10-21T16:03:52.966Z,25.40
2022-10-21T16:06:28.249Z,25.50
2022-10-21T16:09:02.281Z,25.40
2022-10-21T16:11:41.230Z,25.50
2022-10-21T16:14:23.565Z,25.50
2022-10-21T16:17:00.426Z,25.50
2022-10-21T16:19:34.295Z,25.50
2022-10-21T16:22:12.278Z,25.50
2022-10-21T16:24:46.157Z,25.50
2022-10-21T16:27:26.532Z,25.50
2022-10-21T16:30:18.463Z,25.50
2022-10-21T16:32:52.901Z,25.60
2022-10-21T16:35:26.934Z,25.60
2022-10-21T16:38:02.346Z,25.60
2022-10-21T16:40:36.846Z,25.60
2022-10-21T16:43:13.021Z,25.60
2022-10-21T16:45:46.295Z,25.60
2022-10-21T16:48:19.411Z,25.60
2022-10-21T16:50:52.503Z,25.70
2022-10-21T16:53:29.105Z,25.70
2022-10-21T16:56:02.929Z,25.70
2022-10-21T16:58:35.901Z,25.70
2022-10-21T17:01:11.775Z,25.70
2022-10-21T17:03:45.296Z,25.70
2022-10-21T17:06:20.517Z,25.70
2022-10-21T17:08:56.457Z,25.70
2022-10-21T17:11:33.757Z,25.70
2022-10-21T17:14:09.112Z,25.70
2022-10-21T17:16:42.483Z,25.70
2022-10-21T17:19:16.267Z,25.70
2022-10-21T17:21:49.233Z,25.70
2022-10-21T17:24:23.598Z,25.70
2022-10-21T17:26:57.540Z,25.70
2022-10-21T17:29:30.509Z,25.70
2022-10-21T17:32:03.525Z,25.80
2022-10-21T17:34:38.872Z,25.80
2022-10-21T17:37:13.816Z,25.80
2022-10-21T17:39:48.177Z,25.80
2022-10-21T17:42:21.153Z,25.80
2022-10-21T17:44:54.113Z,25.80
2022-10-21T17:47:27.352Z,25.80
2022-10-21T17:50:00.314Z,25.80
2022-10-21T17:52:33.332Z,25.80
2022-10-21T17:55:08.702Z,25.80
2022-10-21T17:57:41.711Z,25.80
2022-10-21T18:00:15.311Z,25.80
2022-10-21T18:02:48.438Z,25.80
2022-10-21T18:05:21.615Z,25.80
2022-10-21T18:07:54.680Z,25.80
2022-10-21T18:10:29.067Z,25.80
2022-10-21T18:13:02.029Z,25.80
2022-10-21T18:15:37.958Z,25.80
2022-10-21T18:18:12.752Z,25.80
2022-10-21T18:20:45.797Z,25.80
2022-10-21T18:23:19.547Z,25.80
2022-10-21T18:25:53.953Z,25.80
2022-10-21T18:28:27.754Z,25.90
2022-10-21T18:31:01.944Z,25.90
2022-10-21T18:33:36.157Z,25.90
2022-10-21T18:36:11.450Z,25.90
2022-10-21T18:38:45.527Z,25.90
2022-10-21T18:41:21.649Z,25.90
2022-10-21T18:43:58.084Z,25.90
2022-10-21T18:46:33.187Z,25.80
2022-10-21T18:49:10.470Z,25.80
2022-10-21T18:51:44.393Z,25.80
2022-10-21T18:54:18.429Z,25.80
2022-10-21T18:56:53.802Z,25.80
2022-10-21T18:59:27.832Z,25.80
2022-10-21T19:02:02.572Z,25.80
2022-10-21T19:04:36.518Z,25.80
2022-10-21T19:07:10.637Z,25.80
2022-10-21T19:09:44.606Z,25.80
2022-10-21T19:12:23.354Z,25.70
2022-10-21T19:14:58.228Z,25.80
2022-10-21T19:17:32.860Z,25.70
2022-10-21T19:20:07.680Z,25.70
2022-10-21T19:22:41.508Z,25.70
2022-10-21T19:25:15.111Z,25.70
2022-10-21T19:27:50.388Z,25.70
2022-10-21T19:30:25.202Z,25.60
2022-10-21T19:33:00.509Z,25.60
2022-10-21T19:35:34.710Z,25.60
2022-10-21T19:38:11.624Z,25.60
2022-10-21T19:40:54.430Z,25.60
2022-10-21T19:43:29.966Z,25.50
2022-10-21T19:46:04.428Z,25.50
2022-10-21T19:48:39.293Z,25.50
2022-10-21T19:51:15.317Z,25.60
2022-10-21T19:53:51.336Z,25.60
2022-10-21T19:56:29.594Z,25.50
2022-10-21T19:59:07.227Z,25.50
2022-10-21T20:01:41.281Z,25.50
2022-10-21T20:04:16.375Z,25.50
2022-10-21T20:06:50.340Z,25.50
2022-10-21T20:09:24.381Z,25.50
2022-10-21T20:11:58.378Z,25.50
2022-10-21T20:14:33.474Z,25.50
2022-10-21T20:17:07.362Z,25.50
2022-10-21T20:19:41.520Z,25.50
2022-10-21T20:22:15.486Z,25.50
2022-10-21T20:24:49.408Z,25.40
2022-10-21T20:27:23.426Z,25.50
2022-10-21T20:29:58.958Z,25.40
2022-10-21T20:32:33.989Z,25.50
2022-10-21T20:35:09.793Z,25.50
2022-10-21T20:37:43.686Z,25.40
2022-10-21T20:40:17.690Z,25.40
2022-10-21T20:42:51.550Z,25.40
2022-10-21T20:45:27.150Z,25.40
2022-10-21T20:48:01.065Z,25.50
2022-10-21T20:50:35.014Z,25.40
2022-10-21T20:53:09.008Z,25.40
2022-10-21T20:55:43.983Z,25.50
2022-10-21T20:58:18.061Z,25.40
2022-10-21T21:00:53.512Z,25.40
2022-10-21T21:03:27.404Z,25.40
2022-10-21T21:06:02.796Z,25.40
2022-10-21T21:08:37.302Z,25.40
2022-10-21T21:11:12.615Z,25.40
2022-10-21T21:13:47.307Z,25.40
2022-10-21T21:16:24.128Z,25.40
2022-10-21T21:19:00.343Z,25.40
2022-10-21T21:21:37.036Z,25.40
2022-10-21T21:24:10.994Z,25.40
2022-10-21T21:26:44.879Z,25.40
2022-10-21T21:29:18.797Z,25.40
2022-10-21T21:31:54.506Z,25.40
2022-10-21T21:34:29.172Z,25.40
2022-10-21T21:37:03.067Z,25.40
2022-10-21T21:39:37.157Z,25.40
2022-10-21T21:42:11.209Z,25.40
2022-10-21T21:44:45.540Z,25.40
2022-10-21T21:47:20.871Z,25.40
2022-10-21T21:49:54.765Z,25.40
2022-10-21T21:52:29.750Z,25.40
2022-10-21T21:55:03.785Z,25.40
2022-10-21T21:57:37.962Z,25.50
2022-10-21T22:00:13.564Z,25.50
2022-10-21T22:02:48.988Z,25.50
2022-10-21T22:05:26.269Z,25.50
2022-10-21T22:08:01.502Z,25.50
2022-10-21T22:10:35.868Z,25.50
2022-10-21T22:13:09.815Z,25.50
2022-10-21T22:15:47.968Z,25.50
2022-10-21T22:18:24.019Z,25.50
2022-10-21T22:21:01.782Z,25.50
2022-10-21T22:23:35.971Z,25.50
2022-10-21T22:26:11.382Z,25.50
2022-10-21T22:28:45.418Z,25.50
2022-10-21T22:31:20.341Z,25.50
2022-10-21T22:33:55.797Z,25.50
2022-10-21T22:36:29.781Z,25.50
2022-10-21T22:39:03.830Z,25.50
2022-10-21T22:41:37.956Z,25.50
2022-10-21T22:44:15.131Z,25.50
2022-10-21T22:46:48.987Z,25.50
2022-10-21T22:49:24.040Z,25.50
2022-10-21T22:51:57.972Z,25.50
2022-10-21T22:54:48.445Z,25.50
2022-10-21T22:57:23.151Z,25.50
2022-10-21T22:59:57.240Z,25.50
2022-10-21T23:02:30.742Z,25.50
2022-10-21T23:05:08.230Z,25.50
2022-10-21T23:07:42.169Z,25.50
2022-10-21T23:10:16.214Z,25.50
2022-10-21T23:12:50.009Z,25.50
2022-10-21T23:15:24.325Z,25.50
2022-10-21T23:17:59.121Z,25.50
2022-10-21T23:20:34.404Z,25.50
2022-10-21T23:23:08.569Z,25.50
2022-10-21T23:25:42.671Z,25.50
2022-10-21T23:30:52.392Z,25.50
2022-10-21T23:33:27.849Z,25.50
2022-10-21T23:36:03.321Z,25.50
2022-10-21T23:38:37.426Z,25.50
2022-10-21T23:41:11.393Z,25.50
2022-10-21T23:43:45.639Z,25.50
2022-10-21T23:46:19.998Z,25.50
2022-10-21T23:48:54.019Z,25.50
2022-10-21T23:51:29.827Z,25.50
2022-10-21T23:54:03.911Z,25.50
2022-10-21T23:56:37.952Z,25.50
2022-10-21T23:59:12.071Z,25.50
